sensor_id;sensor_type;location;lat;lon;timestamp;temperature;humidity
27671;DHT22;15077;49.704;9.908;2022-09-12T00:00:51;18.40;58.40
27671;DHT22;15077;49.704;9.908;2022-09-12T00:03:30;18.40;58.50
27671;DHT22;15077;49.704;9.908;2022-09-12T00:05:57;18.40;58.50
27671;DHT22;15077;49.704;9.908;2022-09-12T00:08:23;18.30;58.40
27671;DHT22;15077;49.704;9.908;2022-09-12T00:10:49;18.30;58.40
27671;DHT22;15077;49.704;9.908;2022-09-12T00:13:15;18.20;58.50
27671;DHT22;15077;49.704;9.908;2022-09-12T00:15:42;18.30;58.50
27671;DHT22;15077;49.704;9.908;2022-09-12T00:18:12;18.20;58.50
27671;DHT22;15077;49.704;9.908;2022-09-12T00:20:42;18.20;58.60
27671;DHT22;15077;49.704;9.908;2022-09-12T00:23:13;18.10;58.60
27671;DHT22;15077;49.704;9.908;2022-09-12T00:25:44;18.20;58.60
27671;DHT22;15077;49.704;9.908;2022-09-12T00:28:14;18.10;58.70
27671;DHT22;15077;49.704;9.908;2022-09-12T00:30:43;18.10;58.70
27671;DHT22;15077;49.704;9.908;2022-09-12T00:33:10;18.10;58.70
27671;DHT22;15077;49.704;9.908;2022-09-12T00:35:49;18.10;58.70
27671;DHT22;15077;49.704;9.908;2022-09-12T00:38:19;18.00;58.80
27671;DHT22;15077;49.704;9.908;2022-09-12T00:40:46;18.00;58.80
27671;DHT22;15077;49.704;9.908;2022-09-12T00:46:27;18.00;58.90
27671;DHT22;15077;49.704;9.908;2022-09-12T00:51:53;18.00;59.00
27671;DHT22;15077;49.704;9.908;2022-09-12T00:54:29;17.90;58.80
27671;DHT22;15077;49.704;9.908;2022-09-12T00:57:01;17.90;59.40
27671;DHT22;15077;49.704;9.908;2022-09-12T00:59:38;17.90;58.90
27671;DHT22;15077;49.704;9.908;2022-09-12T01:02:10;17.80;58.80
27671;DHT22;15077;49.704;9.908;2022-09-12T01:04:37;17.80;58.80
27671;DHT22;15077;49.704;9.908;2022-09-12T01:07:07;17.80;58.90
27671;DHT22;15077;49.704;9.908;2022-09-12T01:09:33;17.80;59.00
27671;DHT22;15077;49.704;9.908;2022-09-12T01:12:01;17.70;59.00
27671;DHT22;15077;49.704;9.908;2022-09-12T01:14:29;17.70;59.00
27671;DHT22;15077;49.704;9.908;2022-09-12T01:16:55;17.70;59.00
27671;DHT22;15077;49.704;9.908;2022-09-12T01:22:27;17.70;59.10
27671;DHT22;15077;49.704;9.908;2022-09-12T01:28:52;17.60;59.20
27671;DHT22;15077;49.704;9.908;2022-09-12T01:31:30;17.50;59.00
27671;DHT22;15077;49.704;9.908;2022-09-12T01:34:17;17.50;59.00
27671;DHT22;15077;49.704;9.908;2022-09-12T01:37:04;17.50;59.70
27671;DHT22;15077;49.704;9.908;2022-09-12T01:40:01;17.50;59.10
27671;DHT22;15077;49.704;9.908;2022-09-12T01:45:27;17.40;59.10
27671;DHT22;15077;49.704;9.908;2022-09-12T01:48:07;17.40;59.00
27671;DHT22;15077;49.704;9.908;2022-09-12T01:50:53;17.40;59.20
27671;DHT22;15077;49.704;9.908;2022-09-12T01:53:31;17.40;59.10
27671;DHT22;15077;49.704;9.908;2022-09-12T01:56:17;17.30;59.00
27671;DHT22;15077;49.704;9.908;2022-09-12T01:58:52;17.30;59.10
27671;DHT22;15077;49.704;9.908;2022-09-12T02:01:30;17.30;59.10
27671;DHT22;15077;49.704;9.908;2022-09-12T02:09:34;17.30;59.10
27671;DHT22;15077;49.704;9.908;2022-09-12T02:12:07;17.20;59.00
27671;DHT22;15077;49.704;9.908;2022-09-12T02:14:41;17.20;59.10
27671;DHT22;15077;49.704;9.908;2022-09-12T02:17:16;17.20;59.10
27671;DHT22;15077;49.704;9.908;2022-09-12T02:19:59;17.10;59.20
27671;DHT22;15077;49.704;9.908;2022-09-12T02:22:30;17.10;59.30
27671;DHT22;15077;49.704;9.908;2022-09-12T02:25:02;17.10;59.20
27671;DHT22;15077;49.704;9.908;2022-09-12T02:27:36;17.00;59.20
27671;DHT22;15077;49.704;9.908;2022-09-12T02:30:07;17.00;59.30
27671;DHT22;15077;49.704;9.908;2022-09-12T02:38:23;17.00;59.50
27671;DHT22;15077;49.704;9.908;2022-09-12T02:40:54;16.90;59.40
27671;DHT22;15077;49.704;9.908;2022-09-12T02:43:21;16.90;59.40
27671;DHT22;15077;49.704;9.908;2022-09-12T02:45:47;16.90;59.60
27671;DHT22;15077;49.704;9.908;2022-09-12T02:48:17;16.90;59.70
27671;DHT22;15077;49.704;9.908;2022-09-12T02:50:46;16.90;59.80
27671;DHT22;15077;49.704;9.908;2022-09-12T02:53:12;16.90;59.80
27671;DHT22;15077;49.704;9.908;2022-09-12T02:55:39;16.90;59.90
27671;DHT22;15077;49.704;9.908;2022-09-12T02:58:13;16.90;60.10
27671;DHT22;15077;49.704;9.908;2022-09-12T03:00:50;16.90;60.10
27671;DHT22;15077;49.704;9.908;2022-09-12T03:06:55;16.90;60.30
27671;DHT22;15077;49.704;9.908;2022-09-12T03:09:46;16.90;60.30
27671;DHT22;15077;49.704;9.908;2022-09-12T03:19:20;16.80;60.20
27671;DHT22;15077;49.704;9.908;2022-09-12T03:27:45;16.80;60.30
27671;DHT22;15077;49.704;9.908;2022-09-12T03:30:21;16.80;60.30
27671;DHT22;15077;49.704;9.908;2022-09-12T03:32:53;16.70;60.10
27671;DHT22;15077;49.704;9.908;2022-09-12T03:35:22;16.70;60.20
27671;DHT22;15077;49.704;9.908;2022-09-12T03:37:50;16.70;60.20
27671;DHT22;15077;49.704;9.908;2022-09-12T03:40:17;16.70;60.10
27671;DHT22;15077;49.704;9.908;2022-09-12T03:42:42;16.70;60.10
27671;DHT22;15077;49.704;9.908;2022-09-12T03:45:09;16.70;60.10
27671;DHT22;15077;49.704;9.908;2022-09-12T03:47:36;16.60;60.00
27671;DHT22;15077;49.704;9.908;2022-09-12T03:50:03;16.60;60.10
27671;DHT22;15077;49.704;9.908;2022-09-12T03:52:30;16.60;60.10
27671;DHT22;15077;49.704;9.908;2022-09-12T03:54:56;16.60;60.10
27671;DHT22;15077;49.704;9.908;2022-09-12T03:57:22;16.50;60.10
27671;DHT22;15077;49.704;9.908;2022-09-12T03:59:48;16.50;60.10
27671;DHT22;15077;49.704;9.908;2022-09-12T04:02:15;16.50;60.40
27671;DHT22;15077;49.704;9.908;2022-09-12T04:04:41;16.50;60.20
27671;DHT22;15077;49.704;9.908;2022-09-12T04:07:09;16.50;60.30
27671;DHT22;15077;49.704;9.908;2022-09-12T04:09:35;16.50;60.30
27671;DHT22;15077;49.704;9.908;2022-09-12T04:12:01;16.50;60.30
27671;DHT22;15077;49.704;9.908;2022-09-12T04:14:27;16.40;60.30
27671;DHT22;15077;49.704;9.908;2022-09-12T04:16:54;16.40;60.40
27671;DHT22;15077;49.704;9.908;2022-09-12T04:19:20;16.40;60.50
27671;DHT22;15077;49.704;9.908;2022-09-12T04:21:46;16.40;60.60
27671;DHT22;15077;49.704;9.908;2022-09-12T04:24:12;16.40;60.60
27671;DHT22;15077;49.704;9.908;2022-09-12T04:26:38;16.40;61.30
27671;DHT22;15077;49.704;9.908;2022-09-12T04:29:05;16.40;60.70
27671;DHT22;15077;49.704;9.908;2022-09-12T04:31:31;16.40;60.80
27671;DHT22;15077;49.704;9.908;2022-09-12T04:33:59;16.40;60.80
27671;DHT22;15077;49.704;9.908;2022-09-12T04:36:27;16.40;61.00
27671;DHT22;15077;49.704;9.908;2022-09-12T04:38:54;16.30;61.00
27671;DHT22;15077;49.704;9.908;2022-09-12T04:41:29;16.40;61.10
27671;DHT22;15077;49.704;9.908;2022-09-12T04:44:14;16.40;61.20
27671;DHT22;15077;49.704;9.908;2022-09-12T04:46:43;16.40;61.40
27671;DHT22;15077;49.704;9.908;2022-09-12T04:49:11;16.40;61.30
27671;DHT22;15077;49.704;9.908;2022-09-12T04:51:40;16.40;61.30
27671;DHT22;15077;49.704;9.908;2022-09-12T04:54:15;16.40;61.40
27671;DHT22;15077;49.704;9.908;2022-09-12T04:56:45;16.40;61.70
27671;DHT22;15077;49.704;9.908;2022-09-12T04:59:14;16.30;61.40
27671;DHT22;15077;49.704;9.908;2022-09-12T05:01:43;16.40;61.60
27671;DHT22;15077;49.704;9.908;2022-09-12T05:04:11;16.40;61.60
27671;DHT22;15077;49.704;9.908;2022-09-12T05:06:38;16.40;61.60
27671;DHT22;15077;49.704;9.908;2022-09-12T05:09:07;16.40;61.60
27671;DHT22;15077;49.704;9.908;2022-09-12T05:11:38;16.40;61.60
27671;DHT22;15077;49.704;9.908;2022-09-12T05:14:05;16.30;61.60
27671;DHT22;15077;49.704;9.908;2022-09-12T05:16:32;16.40;61.70
27671;DHT22;15077;49.704;9.908;2022-09-12T05:18:58;16.40;61.70
27671;DHT22;15077;49.704;9.908;2022-09-12T05:21:25;16.40;61.70
27671;DHT22;15077;49.704;9.908;2022-09-12T05:23:56;16.40;61.80
27671;DHT22;15077;49.704;9.908;2022-09-12T05:26:25;16.40;61.90
27671;DHT22;15077;49.704;9.908;2022-09-12T05:28:53;16.40;61.80
27671;DHT22;15077;49.704;9.908;2022-09-12T05:31:24;16.40;62.00
27671;DHT22;15077;49.704;9.908;2022-09-12T05:33:53;16.40;62.00
27671;DHT22;15077;49.704;9.908;2022-09-12T05:36:22;16.40;62.00
27671;DHT22;15077;49.704;9.908;2022-09-12T05:38:51;16.40;62.10
27671;DHT22;15077;49.704;9.908;2022-09-12T05:41:22;16.40;62.20
27671;DHT22;15077;49.704;9.908;2022-09-12T05:43:54;16.40;62.30
27671;DHT22;15077;49.704;9.908;2022-09-12T05:46:23;16.40;63.20
27671;DHT22;15077;49.704;9.908;2022-09-12T05:48:51;16.40;62.30
27671;DHT22;15077;49.704;9.908;2022-09-12T05:51:22;16.40;62.90
27671;DHT22;15077;49.704;9.908;2022-09-12T05:53:56;16.50;62.60
27671;DHT22;15077;49.704;9.908;2022-09-12T05:56:25;16.50;63.60
27671;DHT22;15077;49.704;9.908;2022-09-12T05:59:16;16.50;62.90
27671;DHT22;15077;49.704;9.908;2022-09-12T06:01:45;16.50;63.10
27671;DHT22;15077;49.704;9.908;2022-09-12T06:04:12;16.50;63.40
27671;DHT22;15077;49.704;9.908;2022-09-12T06:06:40;16.40;63.20
27671;DHT22;15077;49.704;9.908;2022-09-12T06:09:10;16.40;63.30
27671;DHT22;15077;49.704;9.908;2022-09-12T06:11:38;16.40;63.40
27671;DHT22;15077;49.704;9.908;2022-09-12T06:14:09;16.40;64.00
27671;DHT22;15077;49.704;9.908;2022-09-12T06:16:37;16.40;63.80
27671;DHT22;15077;49.704;9.908;2022-09-12T06:19:06;16.40;63.90
27671;DHT22;15077;49.704;9.908;2022-09-12T06:21:39;16.40;63.80
27671;DHT22;15077;49.704;9.908;2022-09-12T06:24:07;16.40;64.00
27671;DHT22;15077;49.704;9.908;2022-09-12T06:26:33;16.40;64.10
27671;DHT22;15077;49.704;9.908;2022-09-12T06:29:00;16.50;63.90
27671;DHT22;15077;49.704;9.908;2022-09-12T06:31:31;16.50;64.40
27671;DHT22;15077;49.704;9.908;2022-09-12T06:34:01;16.50;64.40
27671;DHT22;15077;49.704;9.908;2022-09-12T06:36:33;16.50;64.70
27671;DHT22;15077;49.704;9.908;2022-09-12T06:39:08;16.50;64.60
27671;DHT22;15077;49.704;9.908;2022-09-12T06:41:36;16.50;64.60
27671;DHT22;15077;49.704;9.908;2022-09-12T06:44:03;16.60;64.60
27671;DHT22;15077;49.704;9.908;2022-09-12T06:46:29;16.60;64.50
27671;DHT22;15077;49.704;9.908;2022-09-12T06:48:59;16.60;64.70
27671;DHT22;15077;49.704;9.908;2022-09-12T06:51:27;16.70;64.80
27671;DHT22;15077;49.704;9.908;2022-09-12T06:53:55;16.70;65.00
27671;DHT22;15077;49.704;9.908;2022-09-12T06:56:23;16.70;64.90
27671;DHT22;15077;49.704;9.908;2022-09-12T06:58:52;16.70;64.80
27671;DHT22;15077;49.704;9.908;2022-09-12T07:01:24;16.70;64.80
27671;DHT22;15077;49.704;9.908;2022-09-12T07:03:54;16.80;65.00
27671;DHT22;15077;49.704;9.908;2022-09-12T07:06:23;16.80;65.00
27671;DHT22;15077;49.704;9.908;2022-09-12T07:08:55;16.80;65.20
27671;DHT22;15077;49.704;9.908;2022-09-12T07:11:30;16.90;65.20
27671;DHT22;15077;49.704;9.908;2022-09-12T07:14:00;16.90;65.20
27671;DHT22;15077;49.704;9.908;2022-09-12T07:16:28;17.00;64.90
27671;DHT22;15077;49.704;9.908;2022-09-12T07:18:56;17.00;64.90
27671;DHT22;15077;49.704;9.908;2022-09-12T07:21:23;17.00;65.10
27671;DHT22;15077;49.704;9.908;2022-09-12T07:23:50;17.00;65.10
27671;DHT22;15077;49.704;9.908;2022-09-12T07:26:16;17.10;65.40
27671;DHT22;15077;49.704;9.908;2022-09-12T07:28:43;17.10;65.40
27671;DHT22;15077;49.704;9.908;2022-09-12T07:31:17;17.10;65.80
27671;DHT22;15077;49.704;9.908;2022-09-12T07:33:44;17.10;66.00
27671;DHT22;15077;49.704;9.908;2022-09-12T07:36:14;17.10;66.00
27671;DHT22;15077;49.704;9.908;2022-09-12T07:38:42;17.10;65.90
27671;DHT22;15077;49.704;9.908;2022-09-12T07:41:12;17.20;65.80
27671;DHT22;15077;49.704;9.908;2022-09-12T07:43:40;17.20;65.90
27671;DHT22;15077;49.704;9.908;2022-09-12T07:46:09;17.20;65.80
27671;DHT22;15077;49.704;9.908;2022-09-12T07:48:36;17.30;65.70
27671;DHT22;15077;49.704;9.908;2022-09-12T07:51:10;17.30;65.80
27671;DHT22;15077;49.704;9.908;2022-09-12T07:53:39;17.40;66.20
27671;DHT22;15077;49.704;9.908;2022-09-12T07:56:07;17.40;65.90
27671;DHT22;15077;49.704;9.908;2022-09-12T07:58:35;17.40;65.80
27671;DHT22;15077;49.704;9.908;2022-09-12T08:01:08;17.50;66.00
27671;DHT22;15077;49.704;9.908;2022-09-12T08:03:41;17.50;66.10
27671;DHT22;15077;49.704;9.908;2022-09-12T08:08:40;17.60;66.30
27671;DHT22;15077;49.704;9.908;2022-09-12T08:11:09;17.70;66.30
27671;DHT22;15077;49.704;9.908;2022-09-12T08:13:38;17.70;66.40
27671;DHT22;15077;49.704;9.908;2022-09-12T08:16:07;17.70;66.50
27671;DHT22;15077;49.704;9.908;2022-09-12T08:18:38;17.80;66.40
27671;DHT22;15077;49.704;9.908;2022-09-12T08:21:09;17.80;66.30
27671;DHT22;15077;49.704;9.908;2022-09-12T08:23:37;17.90;66.40
27671;DHT22;15077;49.704;9.908;2022-09-12T08:26:04;17.90;66.20
27671;DHT22;15077;49.704;9.908;2022-09-12T08:28:32;18.00;66.30
27671;DHT22;15077;49.704;9.908;2022-09-12T08:31:07;18.10;66.80
27671;DHT22;15077;49.704;9.908;2022-09-12T08:33:36;18.10;66.60
27671;DHT22;15077;49.704;9.908;2022-09-12T08:36:11;18.10;66.30
27671;DHT22;15077;49.704;9.908;2022-09-12T08:38:48;18.20;66.20
27671;DHT22;15077;49.704;9.908;2022-09-12T08:41:23;18.20;66.30
27671;DHT22;15077;49.704;9.908;2022-09-12T08:44:06;18.20;66.20
27671;DHT22;15077;49.704;9.908;2022-09-12T08:49:56;18.30;67.00
27671;DHT22;15077;49.704;9.908;2022-09-12T08:52:46;18.40;66.60
27671;DHT22;15077;49.704;9.908;2022-09-12T08:58:13;18.50;66.60
27671;DHT22;15077;49.704;9.908;2022-09-12T09:01:20;18.50;66.50
27671;DHT22;15077;49.704;9.908;2022-09-12T09:16:41;18.80;66.50
27671;DHT22;15077;49.704;9.908;2022-09-12T09:19:17;18.90;66.50
27671;DHT22;15077;49.704;9.908;2022-09-12T09:22:11;18.90;66.40
27671;DHT22;15077;49.704;9.908;2022-09-12T09:24:48;19.00;66.60
27671;DHT22;15077;49.704;9.908;2022-09-12T09:27:36;19.00;66.70
27671;DHT22;15077;49.704;9.908;2022-09-12T09:30:14;19.00;66.70
27671;DHT22;15077;49.704;9.908;2022-09-12T09:33:04;19.10;66.80
27671;DHT22;15077;49.704;9.908;2022-09-12T09:35:41;19.10;66.70
27671;DHT22;15077;49.704;9.908;2022-09-12T09:38:30;19.20;66.70
27671;DHT22;15077;49.704;9.908;2022-09-12T09:41:11;19.30;66.70
27671;DHT22;15077;49.704;9.908;2022-09-12T09:43:57;19.30;66.70
27671;DHT22;15077;49.704;9.908;2022-09-12T09:46:24;19.40;66.90
27671;DHT22;15077;49.704;9.908;2022-09-12T09:48:52;19.50;67.10
27671;DHT22;15077;49.704;9.908;2022-09-12T09:51:26;19.60;66.90
27671;DHT22;15077;49.704;9.908;2022-09-12T09:54:01;19.60;66.90
27671;DHT22;15077;49.704;9.908;2022-09-12T09:56:37;19.70;66.90
27671;DHT22;15077;49.704;9.908;2022-09-12T09:59:11;19.80;67.00
27671;DHT22;15077;49.704;9.908;2022-09-12T10:01:56;19.90;66.90
27671;DHT22;15077;49.704;9.908;2022-09-12T10:04:25;20.00;67.20
27671;DHT22;15077;49.704;9.908;2022-09-12T10:06:55;20.20;68.10
27671;DHT22;15077;49.704;9.908;2022-09-12T10:09:29;20.30;68.00
27671;DHT22;15077;49.704;9.908;2022-09-12T10:12:12;20.50;67.90
27671;DHT22;15077;49.704;9.908;2022-09-12T10:15:00;20.70;68.20
27671;DHT22;15077;49.704;9.908;2022-09-12T10:17:44;21.00;67.40
27671;DHT22;15077;49.704;9.908;2022-09-12T10:25:55;21.70;66.80
27671;DHT22;15077;49.704;9.908;2022-09-12T10:28:52;21.80;66.30
27671;DHT22;15077;49.704;9.908;2022-09-12T10:31:27;22.00;65.90
27671;DHT22;15077;49.704;9.908;2022-09-12T10:33:59;22.10;66.10
27671;DHT22;15077;49.704;9.908;2022-09-12T10:36:34;22.20;65.90
27671;DHT22;15077;49.704;9.908;2022-09-12T10:39:02;22.40;65.60
27671;DHT22;15077;49.704;9.908;2022-09-12T10:41:39;22.50;65.30
27671;DHT22;15077;49.704;9.908;2022-09-12T10:44:27;22.60;65.20
27671;DHT22;15077;49.704;9.908;2022-09-12T10:46:56;22.80;65.10
27671;DHT22;15077;49.704;9.908;2022-09-12T10:49:27;22.90;65.10
27671;DHT22;15077;49.704;9.908;2022-09-12T10:54:50;23.20;64.50
27671;DHT22;15077;49.704;9.908;2022-09-12T10:57:48;23.40;64.50
27671;DHT22;15077;49.704;9.908;2022-09-12T11:00:22;23.60;63.90
27671;DHT22;15077;49.704;9.908;2022-09-12T11:03:08;23.70;63.50
27671;DHT22;15077;49.704;9.908;2022-09-12T11:12:10;24.10;62.90
27671;DHT22;15077;49.704;9.908;2022-09-12T11:17:34;24.40;61.70
27671;DHT22;15077;49.704;9.908;2022-09-12T11:23:30;24.50;61.30
27671;DHT22;15077;49.704;9.908;2022-09-12T11:26:12;24.60;61.20
27671;DHT22;15077;49.704;9.908;2022-09-12T11:37:55;24.90;59.30
27671;DHT22;15077;49.704;9.908;2022-09-12T11:46:34;25.10;58.60
27671;DHT22;15077;49.704;9.908;2022-09-12T11:57:56;25.30;57.60
27671;DHT22;15077;49.704;9.908;2022-09-12T12:00:49;25.40;57.60
27671;DHT22;15077;49.704;9.908;2022-09-12T12:03:43;25.40;57.80
27671;DHT22;15077;49.704;9.908;2022-09-12T12:06:18;25.50;57.60
27671;DHT22;15077;49.704;9.908;2022-09-12T12:08:48;25.60;57.90
27671;DHT22;15077;49.704;9.908;2022-09-12T12:11:30;25.60;56.10
27671;DHT22;15077;49.704;9.908;2022-09-12T12:16:36;25.60;55.80
27671;DHT22;15077;49.704;9.908;2022-09-12T12:19:55;25.70;56.10
27671;DHT22;15077;49.704;9.908;2022-09-12T12:22:27;25.70;55.40
27671;DHT22;15077;49.704;9.908;2022-09-12T12:25:04;25.80;55.70
27671;DHT22;15077;49.704;9.908;2022-09-12T12:27:53;25.80;55.70
27671;DHT22;15077;49.704;9.908;2022-09-12T12:38:02;26.00;55.50
27671;DHT22;15077;49.704;9.908;2022-09-12T12:40:29;26.10;55.10
27671;DHT22;15077;49.704;9.908;2022-09-12T12:48:09;26.30;53.90
27671;DHT22;15077;49.704;9.908;2022-09-12T12:50:38;26.30;53.30
27671;DHT22;15077;49.704;9.908;2022-09-12T12:53:24;26.40;53.60
27671;DHT22;15077;49.704;9.908;2022-09-12T12:55:54;26.40;53.70
27671;DHT22;15077;49.704;9.908;2022-09-12T13:03:35;26.50;54.00
27671;DHT22;15077;49.704;9.908;2022-09-12T13:06:06;26.60;53.20
27671;DHT22;15077;49.704;9.908;2022-09-12T13:08:52;26.60;53.30
27671;DHT22;15077;49.704;9.908;2022-09-12T13:11:37;26.70;53.40
27671;DHT22;15077;49.704;9.908;2022-09-12T13:14:33;26.70;53.50
27671;DHT22;15077;49.704;9.908;2022-09-12T13:17:05;26.80;53.30
27671;DHT22;15077;49.704;9.908;2022-09-12T13:19:39;26.80;52.90
27671;DHT22;15077;49.704;9.908;2022-09-12T13:22:08;26.80;52.20
27671;DHT22;15077;49.704;9.908;2022-09-12T13:24:45;26.80;52.80
27671;DHT22;15077;49.704;9.908;2022-09-12T13:27:17;26.90;52.60
27671;DHT22;15077;49.704;9.908;2022-09-12T13:29:45;26.90;52.30
27671;DHT22;15077;49.704;9.908;2022-09-12T13:32:11;27.00;51.90
27671;DHT22;15077;49.704;9.908;2022-09-12T13:43:14;27.00;51.80
27671;DHT22;15077;49.704;9.908;2022-09-12T13:45:44;27.00;51.90
27671;DHT22;15077;49.704;9.908;2022-09-12T13:48:19;27.00;51.50
27671;DHT22;15077;49.704;9.908;2022-09-12T13:50:56;27.00;51.10
27671;DHT22;15077;49.704;9.908;2022-09-12T13:53:32;27.00;51.30
27671;DHT22;15077;49.704;9.908;2022-09-12T13:56:06;27.00;52.00
27671;DHT22;15077;49.704;9.908;2022-09-12T13:58:33;27.00;51.40
27671;DHT22;15077;49.704;9.908;2022-09-12T14:01:12;27.00;51.70
27671;DHT22;15077;49.704;9.908;2022-09-12T14:03:49;27.10;51.80
27671;DHT22;15077;49.704;9.908;2022-09-12T14:06:46;27.20;51.70
27671;DHT22;15077;49.704;9.908;2022-09-12T14:09:34;27.20;51.50
27671;DHT22;15077;49.704;9.908;2022-09-12T14:12:09;27.30;51.70
27671;DHT22;15077;49.704;9.908;2022-09-12T14:14:47;27.40;51.40
27671;DHT22;15077;49.704;9.908;2022-09-12T14:17:32;27.40;50.90
27671;DHT22;15077;49.704;9.908;2022-09-12T14:20:21;27.40;50.50
27671;DHT22;15077;49.704;9.908;2022-09-12T14:22:51;27.40;51.00
27671;DHT22;15077;49.704;9.908;2022-09-12T14:25:20;27.40;50.80
27671;DHT22;15077;49.704;9.908;2022-09-12T14:27:54;27.50;50.90
27671;DHT22;15077;49.704;9.908;2022-09-12T14:30:29;27.50;50.70
27671;DHT22;15077;49.704;9.908;2022-09-12T14:35:46;27.60;51.10
27671;DHT22;15077;49.704;9.908;2022-09-12T14:38:22;27.70;51.00
27671;DHT22;15077;49.704;9.908;2022-09-12T14:41:04;27.80;49.80
27671;DHT22;15077;49.704;9.908;2022-09-12T14:43:33;27.90;49.60
27671;DHT22;15077;49.704;9.908;2022-09-12T14:46:06;27.90;50.30
27671;DHT22;15077;49.704;9.908;2022-09-12T14:48:47;27.90;49.40
27671;DHT22;15077;49.704;9.908;2022-09-12T14:51:26;27.90;48.80
27671;DHT22;15077;49.704;9.908;2022-09-12T14:53:55;27.90;48.60
27671;DHT22;15077;49.704;9.908;2022-09-12T14:56:37;27.90;49.00
27671;DHT22;15077;49.704;9.908;2022-09-12T15:04:51;27.80;48.90
27671;DHT22;15077;49.704;9.908;2022-09-12T15:07:35;27.80;48.70
27671;DHT22;15077;49.704;9.908;2022-09-12T15:10:22;27.80;49.10
27671;DHT22;15077;49.704;9.908;2022-09-12T15:15:31;27.80;49.40
27671;DHT22;15077;49.704;9.908;2022-09-12T15:17:57;27.80;49.00
27671;DHT22;15077;49.704;9.908;2022-09-12T15:20:23;27.80;49.10
27671;DHT22;15077;49.704;9.908;2022-09-12T15:22:50;27.90;48.20
27671;DHT22;15077;49.704;9.908;2022-09-12T15:25:17;27.80;48.40
27671;DHT22;15077;49.704;9.908;2022-09-12T15:27:44;27.80;48.50
27671;DHT22;15077;49.704;9.908;2022-09-12T15:30:11;27.80;48.60
27671;DHT22;15077;49.704;9.908;2022-09-12T15:32:38;27.80;48.50
27671;DHT22;15077;49.704;9.908;2022-09-12T15:35:20;27.80;47.90
27671;DHT22;15077;49.704;9.908;2022-09-12T15:37:48;27.80;48.20
27671;DHT22;15077;49.704;9.908;2022-09-12T15:40:15;27.90;48.40
27671;DHT22;15077;49.704;9.908;2022-09-12T15:42:42;27.80;48.50
27671;DHT22;15077;49.704;9.908;2022-09-12T15:45:18;27.80;48.30
27671;DHT22;15077;49.704;9.908;2022-09-12T15:47:46;27.90;48.10
27671;DHT22;15077;49.704;9.908;2022-09-12T15:50:12;27.90;48.20
27671;DHT22;15077;49.704;9.908;2022-09-12T15:52:38;27.80;48.10
27671;DHT22;15077;49.704;9.908;2022-09-12T15:55:11;27.80;48.20
27671;DHT22;15077;49.704;9.908;2022-09-12T15:57:43;27.90;48.20
27671;DHT22;15077;49.704;9.908;2022-09-12T16:00:11;27.80;48.10
27671;DHT22;15077;49.704;9.908;2022-09-12T16:02:39;27.80;47.50
27671;DHT22;15077;49.704;9.908;2022-09-12T16:05:12;27.80;47.50
27671;DHT22;15077;49.704;9.908;2022-09-12T16:07:39;27.70;47.80
27671;DHT22;15077;49.704;9.908;2022-09-12T16:10:05;27.80;47.90
27671;DHT22;15077;49.704;9.908;2022-09-12T16:12:31;27.70;47.80
27671;DHT22;15077;49.704;9.908;2022-09-12T16:14:57;27.70;47.50
27671;DHT22;15077;49.704;9.908;2022-09-12T16:17:23;27.60;47.60
27671;DHT22;15077;49.704;9.908;2022-09-12T16:19:49;27.60;47.60
27671;DHT22;15077;49.704;9.908;2022-09-12T16:22:16;27.60;47.80
27671;DHT22;15077;49.704;9.908;2022-09-12T16:24:41;27.50;47.60
27671;DHT22;15077;49.704;9.908;2022-09-12T16:27:08;27.50;47.70
27671;DHT22;15077;49.704;9.908;2022-09-12T16:29:33;27.40;47.50
27671;DHT22;15077;49.704;9.908;2022-09-12T16:31:59;27.40;47.80
27671;DHT22;15077;49.704;9.908;2022-09-12T16:34:25;27.30;47.80
27671;DHT22;15077;49.704;9.908;2022-09-12T16:36:51;27.30;48.00
27671;DHT22;15077;49.704;9.908;2022-09-12T16:39:17;27.20;47.90
27671;DHT22;15077;49.704;9.908;2022-09-12T16:41:43;27.20;48.00
27671;DHT22;15077;49.704;9.908;2022-09-12T16:44:09;27.20;48.00
27671;DHT22;15077;49.704;9.908;2022-09-12T16:46:35;27.10;48.20
27671;DHT22;15077;49.704;9.908;2022-09-12T16:49:00;27.10;48.10
27671;DHT22;15077;49.704;9.908;2022-09-12T16:51:30;27.00;48.10
27671;DHT22;15077;49.704;9.908;2022-09-12T16:53:57;27.00;48.10
27671;DHT22;15077;49.704;9.908;2022-09-12T16:56:24;27.00;48.30
27671;DHT22;15077;49.704;9.908;2022-09-12T16:58:50;26.90;48.20
27671;DHT22;15077;49.704;9.908;2022-09-12T17:01:22;26.90;48.50
27671;DHT22;15077;49.704;9.908;2022-09-12T17:03:56;26.80;48.50
27671;DHT22;15077;49.704;9.908;2022-09-12T17:06:24;26.80;48.60
27671;DHT22;15077;49.704;9.908;2022-09-12T17:08:54;26.70;48.60
27671;DHT22;15077;49.704;9.908;2022-09-12T17:11:28;26.70;48.80
27671;DHT22;15077;49.704;9.908;2022-09-12T17:13:59;26.60;48.90
27671;DHT22;15077;49.704;9.908;2022-09-12T17:16:27;26.60;49.10
27671;DHT22;15077;49.704;9.908;2022-09-12T17:18:56;26.50;49.10
27671;DHT22;15077;49.704;9.908;2022-09-12T17:21:23;26.50;49.10
27671;DHT22;15077;49.704;9.908;2022-09-12T17:23:49;26.50;49.20
27671;DHT22;15077;49.704;9.908;2022-09-12T17:26:15;26.40;49.30
27671;DHT22;15077;49.704;9.908;2022-09-12T17:28:41;26.30;49.30
27671;DHT22;15077;49.704;9.908;2022-09-12T17:31:11;26.30;49.50
27671;DHT22;15077;49.704;9.908;2022-09-12T17:33:38;26.30;49.60
27671;DHT22;15077;49.704;9.908;2022-09-12T17:38:35;26.20;49.70
27671;DHT22;15077;49.704;9.908;2022-09-12T17:41:12;26.10;49.60
27671;DHT22;15077;49.704;9.908;2022-09-12T17:43:41;26.10;49.60
27671;DHT22;15077;49.704;9.908;2022-09-12T17:46:07;26.00;49.60
27671;DHT22;15077;49.704;9.908;2022-09-12T17:48:33;26.00;49.70
27671;DHT22;15077;49.704;9.908;2022-09-12T17:51:07;25.90;49.80
27671;DHT22;15077;49.704;9.908;2022-09-12T17:53:38;25.80;49.90
27671;DHT22;15077;49.704;9.908;2022-09-12T17:56:05;25.80;50.00
27671;DHT22;15077;49.704;9.908;2022-09-12T17:58:32;25.80;50.10
27671;DHT22;15077;49.704;9.908;2022-09-12T18:01:03;25.70;50.20
27671;DHT22;15077;49.704;9.908;2022-09-12T18:03:56;25.60;50.20
27671;DHT22;15077;49.704;9.908;2022-09-12T18:06:26;25.60;50.20
27671;DHT22;15077;49.704;9.908;2022-09-12T18:08:53;25.50;50.30
27671;DHT22;15077;49.704;9.908;2022-09-12T18:11:19;25.40;50.30
27671;DHT22;15077;49.704;9.908;2022-09-12T18:13:45;25.40;50.40
27671;DHT22;15077;49.704;9.908;2022-09-12T18:16:12;25.30;50.40
27671;DHT22;15077;49.704;9.908;2022-09-12T18:18:38;25.20;50.50
27671;DHT22;15077;49.704;9.908;2022-09-12T18:21:06;25.10;50.50
27671;DHT22;15077;49.704;9.908;2022-09-12T18:23:34;25.10;50.60
27671;DHT22;15077;49.704;9.908;2022-09-12T18:26:03;25.00;51.20
27671;DHT22;15077;49.704;9.908;2022-09-12T18:28:35;24.90;50.70
27671;DHT22;15077;49.704;9.908;2022-09-12T18:31:03;24.90;50.80
27671;DHT22;15077;49.704;9.908;2022-09-12T18:33:33;24.80;50.80